sensor_id;sensor_type;location;lat;lon;timestamp;pressure;altitude;pressure_sealevel;temperature;humidity
34983;BME280;21187;50.976;13.720;2022-08-25T00:04:16;98667.41;;;22.75;56.91
34983;BME280;21187;50.976;13.720;2022-08-25T00:09:21;98666.25;;;22.72;57.15
34983;BME280;21187;50.976;13.720;2022-08-25T00:14:27;98669.63;;;22.60;57.55
34983;BME280;21187;50.976;13.720;2022-08-25T00:19:33;98657.63;;;22.47;57.98
34983;BME280;21187;50.976;13.720;2022-08-25T00:24:35;98666.13;;;22.28;58.73
34983;BME280;21187;50.976;13.720;2022-08-25T00:29:37;98663.56;;;22.14;59.32
34983;BME280;21187;50.976;13.720;2022-08-25T00:34:39;98667.13;;;22.15;59.36
34983;BME280;21187;50.976;13.720;2022-08-25T00:39:41;98658.84;;;22.15;59.16
34983;BME280;21187;50.976;13.720;2022-08-25T00:51:44;98644.94;;;22.22;58.86
34983;BME280;21187;50.976;13.720;2022-08-25T00:56:48;98646.25;;;22.14;59.37
34983;BME280;21187;50.976;13.720;2022-08-25T01:01:53;98648.28;;;22.09;59.55
34983;BME280;21187;50.976;13.720;2022-08-25T01:06:56;98637.25;;;22.09;59.54
34983;BME280;21187;50.976;13.720;2022-08-25T01:11:59;98637.59;;;22.11;59.50
34983;BME280;21187;50.976;13.720;2022-08-25T01:17:02;98642.41;;;22.07;59.52
34983;BME280;21187;50.976;13.720;2022-08-25T01:22:04;98648.28;;;22.09;59.43
34983;BME280;21187;50.976;13.720;2022-08-25T01:27:06;98646.97;;;22.18;59.16
34983;BME280;21187;50.976;13.720;2022-08-25T01:32:11;98637.88;;;22.21;59.14
34983;BME280;21187;50.976;13.720;2022-08-25T01:37:15;98641.00;;;22.23;58.93
34983;BME280;21187;50.976;13.720;2022-08-25T01:42:45;98638.59;;;22.25;58.71
34983;BME280;21187;50.976;13.720;2022-08-25T01:47:47;98643.84;;;22.16;58.87
34983;BME280;21187;50.976;13.720;2022-08-25T01:53:39;98635.56;;;22.16;58.73
34983;BME280;21187;50.976;13.720;2022-08-25T01:58:23;98630.13;;;22.12;58.77
34983;BME280;21187;50.976;13.720;2022-08-25T02:03:26;98638.81;;;22.10;58.71
34983;BME280;21187;50.976;13.720;2022-08-25T02:08:28;98634.06;;;22.11;58.83
34983;BME280;21187;50.976;13.720;2022-08-25T02:13:31;98626.09;;;22.17;58.85
34983;BME280;21187;50.976;13.720;2022-08-25T02:18:33;98633.56;;;22.20;58.84
34983;BME280;21187;50.976;13.720;2022-08-25T02:23:36;98633.97;;;22.18;58.82
34983;BME280;21187;50.976;13.720;2022-08-25T02:28:38;98633.66;;;22.13;59.07
34983;BME280;21187;50.976;13.720;2022-08-25T02:33:40;98629.44;;;22.04;59.61
34983;BME280;21187;50.976;13.720;2022-08-25T02:38:43;98631.38;;;22.07;59.61
34983;BME280;21187;50.976;13.720;2022-08-25T02:43:46;98624.53;;;22.16;59.57
34983;BME280;21187;50.976;13.720;2022-08-25T02:48:50;98631.53;;;22.24;59.33
34983;BME280;21187;50.976;13.720;2022-08-25T02:53:53;98638.59;;;22.25;59.45
34983;BME280;21187;50.976;13.720;2022-08-25T02:58:55;98623.72;;;22.19;59.46
34983;BME280;21187;50.976;13.720;2022-08-25T03:03:59;98614.00;;;22.10;59.50
34983;BME280;21187;50.976;13.720;2022-08-25T03:09:02;98620.03;;;22.02;59.78
34983;BME280;21187;50.976;13.720;2022-08-25T03:14:06;98601.16;;;22.00;59.73
34983;BME280;21187;50.976;13.720;2022-08-25T03:19:08;98608.19;;;22.01;59.53
34983;BME280;21187;50.976;13.720;2022-08-25T03:24:10;98606.75;;;21.93;59.68
34983;BME280;21187;50.976;13.720;2022-08-25T03:29:12;98606.47;;;21.84;59.90
34983;BME280;21187;50.976;13.720;2022-08-25T03:34:16;98599.41;;;21.83;59.85
34983;BME280;21187;50.976;13.720;2022-08-25T03:39:21;98593.53;;;21.81;59.79
34983;BME280;21187;50.976;13.720;2022-08-25T03:44:23;98602.34;;;21.68;60.42
34983;BME280;21187;50.976;13.720;2022-08-25T03:49:25;98601.72;;;21.57;60.86
34983;BME280;21187;50.976;13.720;2022-08-25T03:54:28;98595.38;;;21.60;60.74
34983;BME280;21187;50.976;13.720;2022-08-25T03:59:30;98604.19;;;21.48;61.32
34983;BME280;21187;50.976;13.720;2022-08-25T04:04:32;98601.13;;;21.42;61.50
34983;BME280;21187;50.976;13.720;2022-08-25T04:09:34;98596.22;;;21.53;61.17
34983;BME280;21187;50.976;13.720;2022-08-25T04:14:37;98608.44;;;21.56;61.15
34983;BME280;21187;50.976;13.720;2022-08-25T04:19:39;98603.34;;;21.54;61.29
34983;BME280;21187;50.976;13.720;2022-08-25T04:24:41;98597.06;;;21.54;61.41
34983;BME280;21187;50.976;13.720;2022-08-25T04:29:43;98600.91;;;21.60;61.30
34983;BME280;21187;50.976;13.720;2022-08-25T04:34:45;98597.78;;;21.58;61.48
34983;BME280;21187;50.976;13.720;2022-08-25T04:39:47;98594.50;;;21.67;61.25
34983;BME280;21187;50.976;13.720;2022-08-25T04:44:49;98590.25;;;21.62;61.67
34983;BME280;21187;50.976;13.720;2022-08-25T04:49:51;98590.72;;;21.57;62.10
34983;BME280;21187;50.976;13.720;2022-08-25T04:54:54;98587.56;;;21.55;62.31
34983;BME280;21187;50.976;13.720;2022-08-25T04:59:56;98589.88;;;21.60;62.30
34983;BME280;21187;50.976;13.720;2022-08-25T05:04:58;98605.44;;;21.74;62.06
34983;BME280;21187;50.976;13.720;2022-08-25T05:10:00;98610.69;;;21.92;61.78
34983;BME280;21187;50.976;13.720;2022-08-25T05:15:02;98607.81;;;22.03;61.70
34983;BME280;21187;50.976;13.720;2022-08-25T05:20:24;98612.69;;;22.19;61.68
34983;BME280;21187;50.976;13.720;2022-08-25T05:25:27;98623.50;;;22.33;61.55
34983;BME280;21187;50.976;13.720;2022-08-25T05:30:29;98619.47;;;22.41;61.36
34983;BME280;21187;50.976;13.720;2022-08-25T05:35:31;98619.22;;;22.56;61.58
34983;BME280;21187;50.976;13.720;2022-08-25T05:40:33;98617.03;;;22.67;61.47
34983;BME280;21187;50.976;13.720;2022-08-25T05:45:36;98610.56;;;22.77;61.31
34983;BME280;21187;50.976;13.720;2022-08-25T05:50:38;98614.69;;;22.89;61.31
34983;BME280;21187;50.976;13.720;2022-08-25T05:55:43;98607.44;;;22.99;61.29
34983;BME280;21187;50.976;13.720;2022-08-25T06:00:45;98608.72;;;23.15;61.41
34983;BME280;21187;50.976;13.720;2022-08-25T06:05:48;98599.75;;;23.31;61.30
34983;BME280;21187;50.976;13.720;2022-08-25T06:10:53;98595.19;;;23.40;61.20
34983;BME280;21187;50.976;13.720;2022-08-25T06:15:59;98604.66;;;23.59;61.26
34983;BME280;21187;50.976;13.720;2022-08-25T06:21:11;98601.19;;;23.75;61.31
34983;BME280;21187;50.976;13.720;2022-08-25T06:26:13;98615.22;;;23.85;60.95
34983;BME280;21187;50.976;13.720;2022-08-25T06:31:22;98603.81;;;23.99;60.93
34983;BME280;21187;50.976;13.720;2022-08-25T06:36:24;98596.06;;;24.11;60.37
34983;BME280;21187;50.976;13.720;2022-08-25T06:41:26;98597.28;;;24.26;60.20
34983;BME280;21187;50.976;13.720;2022-08-25T06:46:37;98599.00;;;24.53;60.35
34983;BME280;21187;50.976;13.720;2022-08-25T06:51:39;98599.28;;;24.75;59.80
34983;BME280;21187;50.976;13.720;2022-08-25T06:56:42;98610.22;;;24.95;59.62
34983;BME280;21187;50.976;13.720;2022-08-25T07:01:44;98593.03;;;25.17;59.66
34983;BME280;21187;50.976;13.720;2022-08-25T07:06:50;98590.78;;;25.41;59.19
34983;BME280;21187;50.976;13.720;2022-08-25T07:11:52;98597.81;;;25.71;59.01
34983;BME280;21187;50.976;13.720;2022-08-25T07:16:54;98596.06;;;26.03;58.26
34983;BME280;21187;50.976;13.720;2022-08-25T07:21:56;98593.72;;;26.28;58.11
34983;BME280;21187;50.976;13.720;2022-08-25T07:26:58;98593.38;;;26.38;57.58
34983;BME280;21187;50.976;13.720;2022-08-25T07:32:00;98597.91;;;26.45;57.43
34983;BME280;21187;50.976;13.720;2022-08-25T07:37:03;98593.66;;;26.53;57.09
34983;BME280;21187;50.976;13.720;2022-08-25T07:42:06;98594.44;;;26.54;56.90
34983;BME280;21187;50.976;13.720;2022-08-25T07:47:12;98603.09;;;26.56;56.83
34983;BME280;21187;50.976;13.720;2022-08-25T07:52:16;98600.22;;;26.72;56.78
34983;BME280;21187;50.976;13.720;2022-08-25T07:57:18;98594.53;;;26.98;56.16
34983;BME280;21187;50.976;13.720;2022-08-25T08:02:22;98605.75;;;27.30;56.14
34983;BME280;21187;50.976;13.720;2022-08-25T08:07:25;98597.03;;;27.40;55.71
34983;BME280;21187;50.976;13.720;2022-08-25T08:12:44;98601.66;;;27.44;55.54
34983;BME280;21187;50.976;13.720;2022-08-25T08:17:46;98605.06;;;27.38;55.42
34983;BME280;21187;50.976;13.720;2022-08-25T08:22:48;98604.38;;;27.34;55.55
34983;BME280;21187;50.976;13.720;2022-08-25T08:27:50;98602.50;;;27.31;55.04
34983;BME280;21187;50.976;13.720;2022-08-25T08:33:07;98597.34;;;27.43;54.94
34983;BME280;21187;50.976;13.720;2022-08-25T08:38:12;98592.47;;;27.56;54.59
34983;BME280;21187;50.976;13.720;2022-08-25T08:43:22;98583.56;;;27.61;54.34
34983;BME280;21187;50.976;13.720;2022-08-25T08:59:05;98572.50;;;27.80;53.85
34983;BME280;21187;50.976;13.720;2022-08-25T09:04:21;98568.78;;;27.83;53.81
34983;BME280;21187;50.976;13.720;2022-08-25T09:09:32;98568.19;;;27.88;53.52
34983;BME280;21187;50.976;13.720;2022-08-25T09:14:45;98574.41;;;27.92;53.49
34983;BME280;21187;50.976;13.720;2022-08-25T09:25:52;98543.59;;;28.27;52.72
34983;BME280;21187;50.976;13.720;2022-08-25T09:31:25;98542.81;;;28.45;52.54
34983;BME280;21187;50.976;13.720;2022-08-25T09:36:30;98532.78;;;28.57;52.48
34983;BME280;21187;50.976;13.720;2022-08-25T09:41:48;98535.44;;;28.88;51.83
34983;BME280;21187;50.976;13.720;2022-08-25T09:46:59;98530.63;;;28.98;51.40
34983;BME280;21187;50.976;13.720;2022-08-25T09:52:39;98525.03;;;29.26;51.17
34983;BME280;21187;50.976;13.720;2022-08-25T10:08:21;98509.28;;;29.81;50.14
34983;BME280;21187;50.976;13.720;2022-08-25T10:13:40;98486.59;;;29.97;49.72
34983;BME280;21187;50.976;13.720;2022-08-25T10:18:42;98497.66;;;30.16;49.11
34983;BME280;21187;50.976;13.720;2022-08-25T10:23:48;98479.34;;;30.15;49.13
34983;BME280;21187;50.976;13.720;2022-08-25T10:34:38;98464.44;;;30.57;48.35
34983;BME280;21187;50.976;13.720;2022-08-25T10:45:07;98461.53;;;30.51;47.87
34983;BME280;21187;50.976;13.720;2022-08-25T10:50:44;98458.97;;;30.38;47.48
34983;BME280;21187;50.976;13.720;2022-08-25T10:56:20;98433.91;;;30.29;47.38
34983;BME280;21187;50.976;13.720;2022-08-25T11:01:30;98443.53;;;30.28;47.27
34983;BME280;21187;50.976;13.720;2022-08-25T11:07:05;98439.94;;;30.52;46.85
34983;BME280;21187;50.976;13.720;2022-08-25T11:12:24;98429.34;;;30.86;46.45
34983;BME280;21187;50.976;13.720;2022-08-25T11:17:37;98423.75;;;31.16;45.63
34983;BME280;21187;50.976;13.720;2022-08-25T11:23:01;98419.19;;;31.33;45.23
34983;BME280;21187;50.976;13.720;2022-08-25T11:33:22;98413.63;;;31.54;44.58
34983;BME280;21187;50.976;13.720;2022-08-25T11:39:12;98406.13;;;31.45;44.51
34983;BME280;21187;50.976;13.720;2022-08-25T11:54:43;98392.13;;;31.81;43.81
34983;BME280;21187;50.976;13.720;2022-08-25T12:04:51;98404.44;;;31.68;43.33
34983;BME280;21187;50.976;13.720;2022-08-25T12:25:58;98362.28;;;31.78;42.65
34983;BME280;21187;50.976;13.720;2022-08-25T12:36:33;98369.63;;;31.55;42.61
34983;BME280;21187;50.976;13.720;2022-08-25T12:41:54;98362.03;;;31.76;42.14
34983;BME280;21187;50.976;13.720;2022-08-25T12:47:25;98352.63;;;31.99;41.69
34983;BME280;21187;50.976;13.720;2022-08-25T12:52:29;98350.91;;;32.08;41.38
34983;BME280;21187;50.976;13.720;2022-08-25T12:57:49;98339.41;;;32.26;41.00
34983;BME280;21187;50.976;13.720;2022-08-25T13:19:18;98321.28;;;32.80;39.25
34983;BME280;21187;50.976;13.720;2022-08-25T13:24:24;98327.50;;;32.95;38.66
34983;BME280;21187;50.976;13.720;2022-08-25T13:29:33;98300.53;;;33.04;38.24
34983;BME280;21187;50.976;13.720;2022-08-25T13:34:42;98298.50;;;33.04;38.67
34983;BME280;21187;50.976;13.720;2022-08-25T13:39:45;98304.66;;;33.14;38.10
34983;BME280;21187;50.976;13.720;2022-08-25T13:44:57;98305.22;;;33.18;37.71
34983;BME280;21187;50.976;13.720;2022-08-25T13:55:37;98282.06;;;33.29;37.36
34983;BME280;21187;50.976;13.720;2022-08-25T14:01:31;98277.75;;;33.33;37.08
34983;BME280;21187;50.976;13.720;2022-08-25T14:07:09;98281.06;;;33.32;37.24
34983;BME280;21187;50.976;13.720;2022-08-25T14:17:32;98278.31;;;33.00;37.00
34983;BME280;21187;50.976;13.720;2022-08-25T14:22:41;98277.81;;;33.01;37.03
34983;BME280;21187;50.976;13.720;2022-08-25T14:27:43;98290.75;;;32.88;37.06
34983;BME280;21187;50.976;13.720;2022-08-25T14:33:07;98274.22;;;32.63;37.17
34983;BME280;21187;50.976;13.720;2022-08-25T14:38:10;98264.94;;;32.46;37.35
34983;BME280;21187;50.976;13.720;2022-08-25T14:43:12;98258.00;;;32.41;37.41
34983;BME280;21187;50.976;13.720;2022-08-25T14:48:42;98240.53;;;32.52;37.57
34983;BME280;21187;50.976;13.720;2022-08-25T14:53:53;98245.09;;;32.49;37.33
34983;BME280;21187;50.976;13.720;2022-08-25T14:58:58;98247.44;;;32.57;37.13
34983;BME280;21187;50.976;13.720;2022-08-25T15:04:06;98231.63;;;32.54;37.06
34983;BME280;21187;50.976;13.720;2022-08-25T15:09:15;98233.69;;;32.27;37.41
34983;BME280;21187;50.976;13.720;2022-08-25T15:14:19;98243.56;;;32.16;37.67
34983;BME280;21187;50.976;13.720;2022-08-25T15:19:33;98237.59;;;32.09;37.63
34983;BME280;21187;50.976;13.720;2022-08-25T15:24:35;98247.97;;;32.02;37.51
34983;BME280;21187;50.976;13.720;2022-08-25T15:29:40;98247.16;;;31.96;37.72
34983;BME280;21187;50.976;13.720;2022-08-25T15:34:42;98238.22;;;31.92;37.93
34983;BME280;21187;50.976;13.720;2022-08-25T15:39:45;98231.63;;;31.95;37.80
34983;BME280;21187;50.976;13.720;2022-08-25T15:44:48;98234.91;;;31.94;37.92
34983;BME280;21187;50.976;13.720;2022-08-25T15:50:05;98221.69;;;31.94;37.99
34983;BME280;21187;50.976;13.720;2022-08-25T15:55:08;98223.13;;;31.84;38.36
34983;BME280;21187;50.976;13.720;2022-08-25T16:00:12;98205.72;;;31.74;38.29
34983;BME280;21187;50.976;13.720;2022-08-25T16:05:22;98218.25;;;31.58;38.57
34983;BME280;21187;50.976;13.720;2022-08-25T16:10:31;98211.53;;;31.50;38.95
34983;BME280;21187;50.976;13.720;2022-08-25T16:15:37;98210.88;;;31.34;39.39
34983;BME280;21187;50.976;13.720;2022-08-25T16:20:46;98201.09;;;31.24;39.70
34983;BME280;21187;50.976;13.720;2022-08-25T16:25:48;98211.03;;;31.05;40.02
34983;BME280;21187;50.976;13.720;2022-08-25T16:30:52;98205.25;;;30.93;40.31
34983;BME280;21187;50.976;13.720;2022-08-25T16:41:09;98200.13;;;30.71;40.79
34983;BME280;21187;50.976;13.720;2022-08-25T16:46:14;98194.47;;;30.65;41.26
34983;BME280;21187;50.976;13.720;2022-08-25T16:51:20;98197.66;;;30.58;41.32
34983;BME280;21187;50.976;13.720;2022-08-25T16:56:27;98202.31;;;30.46;41.76
34983;BME280;21187;50.976;13.720;2022-08-25T17:01:31;98199.50;;;30.31;41.98
34983;BME280;21187;50.976;13.720;2022-08-25T17:06:37;98202.16;;;30.20;42.20
34983;BME280;21187;50.976;13.720;2022-08-25T17:11:47;98207.53;;;30.09;42.00
34983;BME280;21187;50.976;13.720;2022-08-25T17:16:50;98216.03;;;29.99;42.62
34983;BME280;21187;50.976;13.720;2022-08-25T17:21:55;98211.78;;;29.89;42.52
34983;BME280;21187;50.976;13.720;2022-08-25T17:27:00;98214.16;;;29.81;42.78
34983;BME280;21187;50.976;13.720;2022-08-25T17:32:03;98214.25;;;29.72;43.20
34983;BME280;21187;50.976;13.720;2022-08-25T17:37:05;98223.31;;;29.67;43.10
34983;BME280;21187;50.976;13.720;2022-08-25T17:42:08;98239.94;;;29.61;43.74
34983;BME280;21187;50.976;13.720;2022-08-25T17:47:11;98248.94;;;29.56;44.01
34983;BME280;21187;50.976;13.720;2022-08-25T17:52:13;98247.50;;;29.46;44.19
34983;BME280;21187;50.976;13.720;2022-08-25T17:57:18;98240.31;;;29.30;44.07
34983;BME280;21187;50.976;13.720;2022-08-25T18:02:20;98248.94;;;29.17;44.35
34983;BME280;21187;50.976;13.720;2022-08-25T18:07:22;98244.94;;;29.09;44.50
34983;BME280;21187;50.976;13.720;2022-08-25T18:12:24;98251.53;;;28.96;44.59
34983;BME280;21187;50.976;13.720;2022-08-25T18:17:28;98254.34;;;28.87;44.75
34983;BME280;21187;50.976;13.720;2022-08-25T18:22:30;98257.19;;;28.78;44.90
34983;BME280;21187;50.976;13.720;2022-08-25T18:27:33;98258.00;;;28.69;45.18
34983;BME280;21187;50.976;13.720;2022-08-25T18:32:36;98257.09;;;28.63;45.46
34983;BME280;21187;50.976;13.720;2022-08-25T18:37:39;98260.03;;;28.59;45.51
34983;BME280;21187;50.976;13.720;2022-08-25T18:43:03;98257.56;;;28.52;45.90
34983;BME280;21187;50.976;13.720;2022-08-25T18:48:07;98259.47;;;28.46;46.20
34983;BME280;21187;50.976;13.720;2022-08-25T18:53:09;98263.38;;;28.39;46.12
34983;BME280;21187;50.976;13.720;2022-08-25T18:58:12;98254.56;;;28.31;46.38
34983;BME280;21187;50.976;13.720;2022-08-25T19:03:17;98255.66;;;28.25;46.55
34983;BME280;21187;50.976;13.720;2022-08-25T19:08:20;98264.66;;;28.19;46.66
34983;BME280;21187;50.976;13.720;2022-08-25T19:13:23;98267.59;;;28.16;47.18
34983;BME280;21187;50.976;13.720;2022-08-25T19:18:26;98273.03;;;28.10;47.16
34983;BME280;21187;50.976;13.720;2022-08-25T19:23:30;98259.72;;;28.05;47.15
34983;BME280;21187;50.976;13.720;2022-08-25T19:28:34;98256.00;;;27.99;47.66
34983;BME280;21187;50.976;13.720;2022-08-25T19:33:37;98259.41;;;27.94;47.86
34983;BME280;21187;50.976;13.720;2022-08-25T19:38:46;98263.28;;;27.87;47.84
34983;BME280;21187;50.976;13.720;2022-08-25T19:43:49;98256.81;;;27.81;48.09
34983;BME280;21187;50.976;13.720;2022-08-25T19:48:57;98269.78;;;27.75;48.22
34983;BME280;21187;50.976;13.720;2022-08-25T19:54:06;98258.34;;;27.63;48.53
34983;BME280;21187;50.976;13.720;2022-08-25T19:59:10;98269.19;;;27.52;48.78
34983;BME280;21187;50.976;13.720;2022-08-25T20:04:12;98269.78;;;27.37;49.05
34983;BME280;21187;50.976;13.720;2022-08-25T20:09:15;98267.59;;;27.32;49.25
34983;BME280;21187;50.976;13.720;2022-08-25T20:14:38;98265.41;;;27.27;49.29
34983;BME280;21187;50.976;13.720;2022-08-25T20:19:41;98256.13;;;27.21;49.67
34983;BME280;21187;50.976;13.720;2022-08-25T20:24:45;98256.56;;;27.10;49.91
34983;BME280;21187;50.976;13.720;2022-08-25T20:29:56;98255.59;;;26.95;50.26
34983;BME280;21187;50.976;13.720;2022-08-25T20:35:00;98250.50;;;26.84;50.51
34983;BME280;21187;50.976;13.720;2022-08-25T20:40:03;98254.34;;;26.86;50.74
34983;BME280;21187;50.976;13.720;2022-08-25T20:45:06;98248.94;;;26.83;50.31
34983;BME280;21187;50.976;13.720;2022-08-25T20:50:09;98257.25;;;26.73;50.73
34983;BME280;21187;50.976;13.720;2022-08-25T20:55:12;98251.81;;;26.70;50.77
34983;BME280;21187;50.976;13.720;2022-08-25T21:00:15;98245.13;;;26.58;50.86
34983;BME280;21187;50.976;13.720;2022-08-25T21:05:18;98247.88;;;26.49;51.25
34983;BME280;21187;50.976;13.720;2022-08-25T21:10:21;98248.47;;;26.44;51.25
34983;BME280;21187;50.976;13.720;2022-08-25T21:15:23;98238.84;;;26.35;51.46
34983;BME280;21187;50.976;13.720;2022-08-25T21:20:27;98248.81;;;26.23;51.65
34983;BME280;21187;50.976;13.720;2022-08-25T21:25:29;98251.25;;;26.12;52.05
34983;BME280;21187;50.976;13.720;2022-08-25T21:30:32;98243.66;;;26.13;52.00
34983;BME280;21187;50.976;13.720;2022-08-25T21:35:38;98237.72;;;26.01;52.39
34983;BME280;21187;50.976;13.720;2022-08-25T21:40:40;98239.19;;;25.93;52.68
34983;BME280;21187;50.976;13.720;2022-08-25T21:45:45;98243.28;;;25.79;53.07
34983;BME280;21187;50.976;13.720;2022-08-25T21:50:47;98249.59;;;25.80;52.73
34983;BME280;21187;50.976;13.720;2022-08-25T21:55:49;98236.06;;;25.82;52.85
34983;BME280;21187;50.976;13.720;2022-08-25T22:00:51;98236.94;;;25.79;52.93
34983;BME280;21187;50.976;13.720;2022-08-25T22:05:53;98244.97;;;25.77;52.93
34983;BME280;21187;50.976;13.720;2022-08-25T22:10:55;98234.91;;;25.70;53.06
34983;BME280;21187;50.976;13.720;2022-08-25T22:15:58;98232.50;;;25.59;53.65
34983;BME280;21187;50.976;13.720;2022-08-25T22:21:00;98231.84;;;25.55;53.75
34983;BME280;21187;50.976;13.720;2022-08-25T22:26:09;98224.19;;;25.59;53.31
34983;BME280;21187;50.976;13.720;2022-08-25T22:31:12;98215.19;;;25.55;53.76
34983;BME280;21187;50.976;13.720;2022-08-25T22:36:24;98210.91;;;25.54;53.67
34983;BME280;21187;50.976;13.720;2022-08-25T22:41:29;98203.94;;;25.49;53.73
34983;BME280;21187;50.976;13.720;2022-08-25T22:46:33;98210.19;;;25.40;54.16
34983;BME280;21187;50.976;13.720;2022-08-25T22:51:36;98196.53;;;25.33;54.50
34983;BME280;21187;50.976;13.720;2022-08-25T22:56:38;98198.47;;;25.23;54.79
34983;BME280;21187;50.976;13.720;2022-08-25T23:01:42;98189.69;;;25.25;54.37
34983;BME280;21187;50.976;13.720;2022-08-25T23:06:45;98192.78;;;25.27;54.58
34983;BME280;21187;50.976;13.720;2022-08-25T23:11:47;98190.00;;;25.27;54.38
34983;BME280;21187;50.976;13.720;2022-08-25T23:16:51;98191.81;;;25.21;54.50
34983;BME280;21187;50.976;13.720;2022-08-25T23:21:56;98182.63;;;25.11;54.45
34983;BME280;21187;50.976;13.720;2022-08-25T23:27:27;98168.81;;;24.98;54.65
34983;BME280;21187;50.976;13.720;2022-08-25T23:32:29;98169.41;;;24.93;55.12
34983;BME280;21187;50.976;13.720;2022-08-25T23:37:32;98166.28;;;24.91;55.18
34983;BME280;21187;50.976;13.720;2022-08-25T23:42:34;98167.84;;;24.92;54.97
34983;BME280;21187;50.976;13.720;2022-08-25T23:47:37;98165.66;;;24.87;55.39
34983;BME280;21187;50.976;13.720;2022-08-25T23:52:39;98162.13;;;24.73;55.46
34983;BME280;21187;50.976;13.720;2022-08-25T23:57:41;98167.34;;;24.71;55.87
